createdAt,value
2022-08-20T00:01:01.926Z,20.50
2022-08-20T00:03:34.476Z,20.40
2022-08-20T00:06:09.613Z,20.40
2022-08-20T00:08:40.358Z,20.40
2022-08-20T00:11:12.597Z,20.30
2022-08-20T00:13:46.093Z,20.30
2022-08-20T00:16:17.619Z,20.30
2022-08-20T00:18:48.541Z,20.20
2022-08-20T00:21:23.285Z,20.20
2022-08-20T00:23:59.379Z,20.10
2022-08-20T00:26:29.589Z,20.10
2022-08-20T00:28:59.449Z,20.10
2022-08-20T00:31:29.420Z,20.00
2022-08-20T00:33:59.209Z,20.00
2022-08-20T00:36:32.601Z,20.00
2022-08-20T00:39:03.056Z,19.90
2022-08-20T00:41:33.707Z,19.90
2022-08-20T00:44:14.075Z,19.90
2022-08-20T00:46:45.570Z,19.80
2022-08-20T00:49:22.196Z,19.80
2022-08-20T00:51:57.578Z,19.80
2022-08-20T00:54:32.419Z,19.70
2022-08-20T00:57:09.850Z,19.70
2022-08-20T00:59:43.207Z,19.70
2022-08-20T01:02:16.017Z,19.60
2022-08-20T01:04:48.537Z,19.60
2022-08-20T01:07:24.134Z,19.60
2022-08-20T01:09:59.169Z,19.50
2022-08-20T01:12:30.771Z,19.50
2022-08-20T01:15:03.512Z,19.50
2022-08-20T01:17:38.107Z,19.50
2022-08-20T01:20:13.363Z,19.50
2022-08-20T01:23:05.261Z,19.50
2022-08-20T01:25:44.813Z,19.50
2022-08-20T01:28:16.502Z,19.50
2022-08-20T01:30:46.854Z,19.50
2022-08-20T01:33:16.867Z,19.50
2022-08-20T01:35:47.455Z,19.50
2022-08-20T01:38:17.406Z,19.50
2022-08-20T01:41:28.832Z,19.50
2022-08-20T01:43:59.958Z,19.50
2022-08-20T01:46:32.711Z,19.50
2022-08-20T01:49:20.251Z,19.50
2022-08-20T01:51:54.812Z,19.50
2022-08-20T01:54:25.143Z,19.50
2022-08-20T01:57:02.043Z,19.50
2022-08-20T01:59:32.507Z,19.50
2022-08-20T02:02:02.869Z,19.50
2022-08-20T02:04:33.112Z,19.60
2022-08-20T02:07:05.671Z,19.60
2022-08-20T02:09:39.234Z,19.60
2022-08-20T02:12:14.353Z,19.60
2022-08-20T02:14:47.375Z,19.60
2022-08-20T02:17:18.801Z,19.60
2022-08-20T02:19:51.611Z,19.60
2022-08-20T02:22:30.514Z,19.60
2022-08-20T02:25:00.344Z,19.60
2022-08-20T02:27:33.839Z,19.50
2022-08-20T02:30:04.595Z,19.50
2022-08-20T02:32:34.552Z,19.60
2022-08-20T02:35:04.995Z,19.50
2022-08-20T02:37:34.924Z,19.60
2022-08-20T02:40:05.242Z,19.60
2022-08-20T02:42:41.905Z,19.60
2022-08-20T02:45:18.841Z,19.60
2022-08-20T02:47:49.629Z,19.60
2022-08-20T02:50:21.749Z,19.60
2022-08-20T02:52:52.094Z,19.60
2022-08-20T02:55:26.865Z,19.60
2022-08-20T02:58:01.349Z,19.60
2022-08-20T03:00:38.600Z,19.60
2022-08-20T03:03:09.309Z,19.50
2022-08-20T03:05:41.631Z,19.50
2022-08-20T03:08:14.764Z,19.50
2022-08-20T03:10:47.860Z,19.50
2022-08-20T03:13:20.785Z,19.60
2022-08-20T03:15:58.563Z,19.60
2022-08-20T03:18:33.746Z,19.60
2022-08-20T03:21:04.907Z,19.70
2022-08-20T03:23:36.574Z,19.70
2022-08-20T03:26:12.909Z,19.70
2022-08-20T03:28:47.980Z,19.60
2022-08-20T03:31:19.268Z,19.60
2022-08-20T03:33:53.538Z,19.60
2022-08-20T03:36:27.853Z,19.70
2022-08-20T03:38:59.185Z,19.70
2022-08-20T03:41:29.339Z,19.70
2022-08-20T03:44:01.869Z,19.70
2022-08-20T03:46:31.989Z,19.70
2022-08-20T03:49:01.921Z,19.70
2022-08-20T03:51:33.162Z,19.70
2022-08-20T03:54:22.250Z,19.70
2022-08-20T03:56:52.077Z,19.70
2022-08-20T03:59:24.537Z,19.60
2022-08-20T04:01:55.026Z,19.70
2022-08-20T04:04:24.867Z,19.70
2022-08-20T04:06:55.830Z,19.70
2022-08-20T04:09:25.700Z,19.70
2022-08-20T04:12:00.948Z,19.70
2022-08-20T04:14:33.626Z,19.70
2022-08-20T04:17:07.676Z,19.70
2022-08-20T04:19:38.865Z,19.70
2022-08-20T04:22:09.095Z,19.70
2022-08-20T04:24:39.016Z,19.70
2022-08-20T04:27:09.372Z,19.70
2022-08-20T04:29:45.729Z,19.70
2022-08-20T04:32:15.731Z,19.80
2022-08-20T04:34:47.783Z,19.80
2022-08-20T04:37:21.236Z,19.80
2022-08-20T04:40:11.437Z,19.80
2022-08-20T04:42:39.198Z,19.80
2022-08-20T04:45:12.798Z,19.90
2022-08-20T04:47:42.643Z,19.80
2022-08-20T04:50:14.407Z,19.90
2022-08-20T04:52:44.319Z,19.90
2022-08-20T04:55:14.441Z,19.90
2022-08-20T04:57:44.314Z,19.90
2022-08-20T05:00:20.260Z,19.90
2022-08-20T05:02:50.073Z,19.90
2022-08-20T05:05:20.787Z,19.90
2022-08-20T05:07:50.949Z,19.90
2022-08-20T05:10:23.559Z,19.90
2022-08-20T05:12:56.938Z,20.00
2022-08-20T05:15:29.807Z,20.00
2022-08-20T05:18:03.931Z,20.00
2022-08-20T05:20:35.914Z,20.00
2022-08-20T05:23:05.854Z,20.00
2022-08-20T05:25:35.912Z,20.00
2022-08-20T05:28:09.568Z,20.00
2022-08-20T05:30:43.483Z,19.90
2022-08-20T05:33:16.805Z,20.00
2022-08-20T05:35:47.333Z,20.00
2022-08-20T05:38:19.342Z,20.00
2022-08-20T05:40:49.915Z,20.00
2022-08-20T05:43:19.804Z,20.00
2022-08-20T05:45:56.519Z,20.00
2022-08-20T05:48:28.080Z,20.00
2022-08-20T05:50:58.699Z,20.00
2022-08-20T05:53:28.742Z,20.00
2022-08-20T05:56:01.350Z,20.10
2022-08-20T05:58:32.994Z,20.00
2022-08-20T06:01:06.443Z,20.10
2022-08-20T06:03:48.809Z,20.10
2022-08-20T06:06:44.060Z,20.10
2022-08-20T06:09:09.167Z,20.10
2022-08-20T06:11:39.056Z,20.20
2022-08-20T06:14:08.905Z,20.10
2022-08-20T06:16:56.323Z,20.20
2022-08-20T06:19:32.538Z,20.30
2022-08-20T06:22:18.725Z,20.30
2022-08-20T06:24:53.146Z,20.40
2022-08-20T06:27:24.245Z,20.30
2022-08-20T06:29:55.061Z,20.30
2022-08-20T06:32:31.930Z,20.40
2022-08-20T06:35:04.099Z,20.30
2022-08-20T06:37:36.457Z,20.40
2022-08-20T06:40:11.035Z,20.40
2022-08-20T06:42:47.812Z,20.40
2022-08-20T06:45:21.421Z,20.50
2022-08-20T06:47:55.777Z,20.40
2022-08-20T06:50:29.385Z,20.50
2022-08-20T06:52:59.673Z,20.50
2022-08-20T06:55:30.593Z,20.50
2022-08-20T06:58:01.378Z,20.60
2022-08-20T07:00:33.907Z,20.70
2022-08-20T07:03:07.367Z,20.50
2022-08-20T07:05:42.177Z,20.40
2022-08-20T07:08:13.625Z,20.40
2022-08-20T07:10:44.123Z,20.40
2022-08-20T07:13:16.316Z,20.50
2022-08-20T07:15:46.757Z,20.60
2022-08-20T07:18:28.099Z,20.70
2022-08-20T07:20:58.691Z,20.70
2022-08-20T07:23:29.346Z,20.70
2022-08-20T07:25:59.223Z,20.90
2022-08-20T07:28:32.063Z,21.00
2022-08-20T07:31:15.946Z,21.10
2022-08-20T07:33:50.525Z,21.20
2022-08-20T07:36:20.797Z,21.10
2022-08-20T07:38:50.995Z,21.30
2022-08-20T07:41:21.991Z,21.50
2022-08-20T07:43:51.961Z,21.80
2022-08-20T07:46:23.227Z,21.50
2022-08-20T07:48:55.701Z,21.50
2022-08-20T07:51:26.164Z,21.80
2022-08-20T07:53:58.208Z,21.80
2022-08-20T07:56:28.375Z,22.10
2022-08-20T07:59:02.903Z,22.30
2022-08-20T08:01:35.211Z,22.40
2022-08-20T08:04:07.799Z,22.40
2022-08-20T08:06:37.945Z,22.70
2022-08-20T08:09:13.065Z,22.90
2022-08-20T08:11:48.984Z,22.30
2022-08-20T08:14:23.515Z,22.30
2022-08-20T08:16:55.675Z,22.40
2022-08-20T08:19:37.771Z,22.40
2022-08-20T08:22:10.963Z,22.50
2022-08-20T08:24:40.795Z,22.30
2022-08-20T08:27:10.984Z,22.60
2022-08-20T08:29:40.870Z,22.40
2022-08-20T08:32:10.835Z,22.50
2022-08-20T08:34:48.105Z,22.80
2022-08-20T08:37:17.953Z,22.40
2022-08-20T08:39:48.328Z,22.30
2022-08-20T08:42:29.344Z,22.40
2022-08-20T08:45:00.501Z,22.30
2022-08-20T08:47:34.659Z,22.60
2022-08-20T08:50:08.085Z,23.00
2022-08-20T08:52:42.807Z,23.30
2022-08-20T08:55:15.932Z,23.20
2022-08-20T08:57:45.921Z,22.80
2022-08-20T09:00:19.705Z,23.10
2022-08-20T09:03:00.003Z,22.70
2022-08-20T09:05:39.391Z,23.10
2022-08-20T09:08:17.043Z,23.60
2022-08-20T09:10:47.836Z,23.30
2022-08-20T09:13:17.674Z,23.40
2022-08-20T09:15:47.698Z,23.20
2022-08-20T09:18:17.541Z,23.10
2022-08-20T09:20:50.014Z,23.00
2022-08-20T09:23:20.147Z,22.70
2022-08-20T09:25:50.415Z,22.80
2022-08-20T09:28:20.486Z,22.80
2022-08-20T09:30:51.292Z,23.00
2022-08-20T09:33:21.629Z,23.00
2022-08-20T09:35:54.055Z,22.80
2022-08-20T09:38:23.936Z,22.30
2022-08-20T09:40:53.776Z,22.70
2022-08-20T09:43:23.594Z,22.40
2022-08-20T09:45:53.611Z,22.70
2022-08-20T09:48:32.119Z,23.20
2022-08-20T09:51:04.973Z,23.00
2022-08-20T09:53:35.527Z,23.40
2022-08-20T09:56:06.504Z,23.40
2022-08-20T09:58:39.739Z,23.30
2022-08-20T10:01:14.865Z,23.50
2022-08-20T10:03:45.282Z,23.80
2022-08-20T10:06:19.683Z,23.60
2022-08-20T10:08:49.815Z,23.90
2022-08-20T10:11:20.678Z,24.00
2022-08-20T10:13:50.548Z,23.60
2022-08-20T10:16:20.386Z,23.80
2022-08-20T10:18:50.718Z,23.60
2022-08-20T10:21:23.436Z,23.50
2022-08-20T10:23:53.274Z,23.20
2022-08-20T10:26:23.125Z,23.50
2022-08-20T10:28:55.441Z,23.10
2022-08-20T10:31:25.310Z,23.00
2022-08-20T10:33:55.150Z,22.90
2022-08-20T10:36:27.600Z,23.00
2022-08-20T10:38:57.449Z,23.60
2022-08-20T10:41:28.315Z,24.10
2022-08-20T10:43:58.171Z,24.50
2022-08-20T10:46:28.079Z,23.70
2022-08-20T10:48:57.925Z,23.90
2022-08-20T10:51:32.677Z,23.70
2022-08-20T10:54:03.052Z,24.10
2022-08-20T10:56:38.036Z,24.20
2022-08-20T10:59:08.600Z,23.90
2022-08-20T11:01:38.490Z,23.50
2022-08-20T11:04:08.332Z,23.50
2022-08-20T11:06:40.741Z,23.60
2022-08-20T11:09:10.572Z,23.60
2022-08-20T11:11:40.412Z,23.80
2022-08-20T11:14:10.323Z,24.50
2022-08-20T11:16:40.188Z,24.70
2022-08-20T11:19:10.022Z,24.60
2022-08-20T11:21:42.579Z,24.70
2022-08-20T11:24:12.473Z,23.90
2022-08-20T11:26:42.986Z,23.90
2022-08-20T11:29:12.877Z,23.90
2022-08-20T11:31:42.974Z,23.70
2022-08-20T11:34:13.013Z,23.30
2022-08-20T11:36:45.741Z,23.50
2022-08-20T11:39:15.732Z,23.60
2022-08-20T11:41:45.846Z,23.70
2022-08-20T11:44:21.194Z,23.60
2022-08-20T11:46:51.516Z,23.30
2022-08-20T11:49:21.365Z,22.70
2022-08-20T11:51:53.709Z,21.60
2022-08-20T11:54:23.601Z,21.00
2022-08-20T11:56:54.066Z,20.90
2022-08-20T11:59:23.927Z,21.10
2022-08-20T12:02:02.326Z,21.10
2022-08-20T12:04:33.378Z,21.10
2022-08-20T12:07:15.901Z,21.20
2022-08-20T12:09:51.202Z,21.40
2022-08-20T12:12:23.963Z,21.50
2022-08-20T12:14:54.265Z,21.40
2022-08-20T12:17:27.567Z,21.60
2022-08-20T12:20:00.386Z,21.90
2022-08-20T12:22:33.187Z,21.90
2022-08-20T12:25:03.291Z,21.80
2022-08-20T12:27:34.585Z,21.80
2022-08-20T12:30:07.659Z,22.20
2022-08-20T12:32:37.670Z,22.30
2022-08-20T12:35:09.082Z,22.20
2022-08-20T12:37:42.379Z,22.20
2022-08-20T12:40:15.571Z,22.20
2022-08-20T12:42:45.752Z,22.20
2022-08-20T12:45:15.861Z,22.10
2022-08-20T12:47:48.040Z,21.80
2022-08-20T12:50:20.793Z,21.40
2022-08-20T12:52:53.313Z,21.20
2022-08-20T12:55:23.725Z,20.20
2022-08-20T12:57:57.104Z,19.50
2022-08-20T13:00:29.065Z,19.30
2022-08-20T13:03:01.893Z,18.90
2022-08-20T13:05:32.536Z,18.90
2022-08-20T13:08:05.973Z,19.20
2022-08-20T13:10:38.102Z,19.60
2022-08-20T13:13:07.917Z,19.50
2022-08-20T13:15:37.765Z,19.80
2022-08-20T13:18:08.911Z,19.90
2022-08-20T13:20:40.793Z,20.00
2022-08-20T13:23:13.347Z,20.10
2022-08-20T13:25:43.236Z,20.30
2022-08-20T13:28:13.064Z,20.60
2022-08-20T13:30:43.611Z,21.00
2022-08-20T13:33:13.504Z,21.10
2022-08-20T13:35:43.523Z,21.50
2022-08-20T13:38:16.629Z,21.60
2022-08-20T13:40:48.886Z,21.90
2022-08-20T13:43:18.975Z,22.20
2022-08-20T13:45:48.787Z,22.40
2022-08-20T13:48:18.565Z,22.40
2022-08-20T13:50:48.447Z,22.70
2022-08-20T13:53:21.400Z,23.00
2022-08-20T13:55:52.934Z,23.10
2022-08-20T13:58:22.914Z,23.20
2022-08-20T14:00:53.294Z,23.30
2022-08-20T14:03:25.752Z,23.70
2022-08-20T14:05:55.894Z,24.00
2022-08-20T14:08:28.261Z,24.20
2022-08-20T14:10:58.370Z,24.40
2022-08-20T14:13:29.803Z,24.60
2022-08-20T14:15:59.768Z,24.60
2022-08-20T14:18:30.819Z,24.40
2022-08-20T14:21:00.656Z,24.20
2022-08-20T14:23:33.139Z,24.30
2022-08-20T14:26:06.842Z,24.50
2022-08-20T14:28:36.757Z,24.90
2022-08-20T14:31:06.576Z,25.10
2022-08-20T14:33:36.784Z,24.90
2022-08-20T14:36:07.798Z,24.90
2022-08-20T14:38:45.030Z,24.80
2022-08-20T14:41:14.888Z,24.60
2022-08-20T14:43:44.716Z,25.20
2022-08-20T14:46:14.545Z,25.40
2022-08-20T14:48:44.359Z,24.90
2022-08-20T14:51:14.179Z,24.70
2022-08-20T14:53:46.997Z,24.90
2022-08-20T14:56:17.994Z,25.20
2022-08-20T14:58:47.809Z,25.10
2022-08-20T15:01:17.704Z,25.10
2022-08-20T15:03:47.580Z,25.30
2022-08-20T15:06:22.322Z,25.10
2022-08-20T15:08:54.841Z,25.10
2022-08-20T15:11:24.633Z,25.00
2022-08-20T15:13:54.764Z,24.90
2022-08-20T15:16:24.625Z,25.10
2022-08-20T15:18:59.708Z,24.40
2022-08-20T15:21:30.326Z,23.80
2022-08-20T15:24:19.287Z,24.00
2022-08-20T15:26:49.280Z,24.50
2022-08-20T15:29:22.897Z,24.40
2022-08-20T15:31:52.934Z,24.60
2022-08-20T15:34:25.544Z,25.00
2022-08-20T15:36:55.374Z,25.10
2022-08-20T15:39:27.792Z,25.20
2022-08-20T15:41:57.665Z,25.30
2022-08-20T15:44:27.511Z,25.30
2022-08-20T15:46:57.383Z,25.20
2022-08-20T15:49:27.555Z,25.20
2022-08-20T15:51:57.458Z,25.10
2022-08-20T15:54:30.733Z,25.30
2022-08-20T15:57:07.980Z,25.40
2022-08-20T15:59:57.226Z,25.40
2022-08-20T16:02:46.768Z,25.30
2022-08-20T16:05:26.098Z,25.20
2022-08-20T16:08:06.415Z,25.20
2022-08-20T16:10:51.219Z,25.30
2022-08-20T16:13:40.362Z,24.80
2022-08-20T16:16:16.839Z,25.00
2022-08-20T16:18:50.616Z,25.00
2022-08-20T16:21:29.452Z,25.10
2022-08-20T16:23:59.836Z,25.10
2022-08-20T16:26:54.479Z,25.10
2022-08-20T16:29:32.167Z,25.10
2022-08-20T16:32:05.853Z,25.10
2022-08-20T16:34:41.983Z,24.90
2022-08-20T16:37:25.278Z,25.00
2022-08-20T16:40:00.887Z,25.00
2022-08-20T16:42:40.125Z,24.90
2022-08-20T16:45:16.449Z,24.90
2022-08-20T16:47:47.298Z,25.00
2022-08-20T16:50:23.591Z,25.10
2022-08-20T16:52:53.982Z,25.10
2022-08-20T16:55:26.978Z,25.10
2022-08-20T16:57:59.621Z,25.10
2022-08-20T17:00:35.498Z,25.10
2022-08-20T17:03:08.393Z,25.00
2022-08-20T17:05:49.013Z,25.10
2022-08-20T17:08:24.618Z,25.10
2022-08-20T17:11:01.324Z,25.00
2022-08-20T17:13:36.976Z,25.00
2022-08-20T17:16:09.819Z,25.00
2022-08-20T17:18:41.541Z,25.00
2022-08-20T17:21:22.932Z,25.00
2022-08-20T17:24:02.771Z,24.90
2022-08-20T17:26:35.229Z,24.80
2022-08-20T17:29:21.635Z,24.70
2022-08-20T17:31:55.047Z,24.50
2022-08-20T17:34:27.799Z,24.40
2022-08-20T17:37:00.245Z,24.30
2022-08-20T17:39:31.911Z,24.20
2022-08-20T17:42:09.718Z,24.10
2022-08-20T17:44:45.861Z,23.90
2022-08-20T17:47:18.442Z,24.00
2022-08-20T17:50:01.888Z,23.80
2022-08-20T17:52:37.104Z,23.70
2022-08-20T17:55:07.573Z,23.60
2022-08-20T17:57:42.798Z,23.60
2022-08-20T18:00:23.305Z,23.50
2022-08-20T18:02:55.639Z,23.40
2022-08-20T18:05:26.718Z,23.40
2022-08-20T18:08:10.123Z,23.20
2022-08-20T18:10:45.455Z,23.20
2022-08-20T18:13:21.160Z,23.10
2022-08-20T18:15:59.483Z,23.00
2022-08-20T18:18:51.007Z,22.90
2022-08-20T18:22:01.991Z,22.80
2022-08-20T18:24:39.811Z,22.60
2022-08-20T18:27:14.389Z,22.60
2022-08-20T18:29:46.780Z,22.50
2022-08-20T18:32:35.519Z,22.50
2022-08-20T18:35:16.804Z,22.40
2022-08-20T18:37:48.204Z,22.30
2022-08-20T18:40:25.028Z,22.20
2022-08-20T18:42:54.857Z,22.20
2022-08-20T18:45:33.829Z,22.10
2022-08-20T18:48:07.838Z,22.00
2022-08-20T18:50:47.037Z,21.90
2022-08-20T18:53:21.310Z,21.80
2022-08-20T18:56:03.718Z,21.70
2022-08-20T18:58:36.223Z,21.70
2022-08-20T19:01:14.226Z,21.70
2022-08-20T19:03:49.891Z,21.60
2022-08-20T19:06:31.302Z,21.60
2022-08-20T19:09:06.793Z,21.60
2022-08-20T19:11:58.694Z,21.50
2022-08-20T19:14:56.141Z,21.40
2022-08-20T19:17:51.194Z,21.30
2022-08-20T19:20:25.502Z,21.30
2022-08-20T19:22:58.230Z,21.20
2022-08-20T19:25:31.093Z,21.20
2022-08-20T19:28:02.575Z,21.20
2022-08-20T19:30:36.489Z,21.20
2022-08-20T19:33:07.210Z,21.10
2022-08-20T19:35:39.772Z,21.10
2022-08-20T19:38:11.334Z,21.10
2022-08-20T19:40:44.326Z,21.00
2022-08-20T19:43:19.452Z,20.90
2022-08-20T19:45:51.739Z,20.90
2022-08-20T19:48:46.711Z,20.90
2022-08-20T19:51:23.026Z,20.90
2022-08-20T19:53:52.979Z,20.90
2022-08-20T19:56:24.748Z,20.80
2022-08-20T19:59:03.270Z,20.70
2022-08-20T20:01:34.486Z,20.60
2022-08-20T20:04:08.796Z,20.60
2022-08-20T20:06:44.613Z,20.60
2022-08-20T20:09:20.089Z,20.60
2022-08-20T20:11:55.196Z,20.50
2022-08-20T20:14:28.844Z,20.30
2022-08-20T20:17:00.019Z,20.30
2022-08-20T20:19:30.037Z,20.20
2022-08-20T20:22:18.813Z,20.10
2022-08-20T20:25:00.587Z,20.10
2022-08-20T20:27:32.097Z,20.00
2022-08-20T20:30:04.408Z,20.10
2022-08-20T20:32:35.188Z,20.00
2022-08-20T20:35:09.247Z,19.90
2022-08-20T20:37:50.884Z,19.90
2022-08-20T20:40:26.479Z,19.90
2022-08-20T20:43:02.978Z,19.90
2022-08-20T20:45:37.168Z,19.90
2022-08-20T20:48:21.236Z,19.80
2022-08-20T20:50:52.605Z,19.80
2022-08-20T20:53:53.252Z,19.80
2022-08-20T20:56:33.853Z,19.80
2022-08-20T20:59:06.782Z,19.80
2022-08-20T21:01:48.452Z,19.80
2022-08-20T21:04:21.389Z,19.70
2022-08-20T21:06:52.133Z,19.70
2022-08-20T21:09:26.728Z,19.60
2022-08-20T21:11:56.602Z,19.60
2022-08-20T21:14:26.420Z,19.50
2022-08-20T21:16:56.536Z,19.50
2022-08-20T21:19:26.482Z,19.40
2022-08-20T21:21:56.303Z,19.40
2022-08-20T21:24:29.095Z,19.40
2022-08-20T21:26:59.263Z,19.40
2022-08-20T21:29:32.774Z,19.40
2022-08-20T21:32:03.370Z,19.30
2022-08-20T21:34:33.229Z,19.20
2022-08-20T21:37:03.039Z,19.00
2022-08-20T21:39:35.519Z,19.00
2022-08-20T21:42:28.260Z,18.80
2022-08-20T21:44:58.013Z,18.80
2022-08-20T21:47:28.235Z,18.70
2022-08-20T21:49:58.420Z,18.60
2022-08-20T21:52:28.234Z,18.60
2022-08-20T21:55:00.949Z,18.50
2022-08-20T21:57:33.716Z,18.40
2022-08-20T22:00:04.962Z,18.40
2022-08-20T22:02:34.942Z,18.40
2022-08-20T22:05:05.243Z,18.30
2022-08-20T22:07:35.072Z,18.30
2022-08-20T22:10:08.369Z,18.20
2022-08-20T22:12:38.353Z,18.20
2022-08-20T22:15:09.565Z,18.20
2022-08-20T22:17:39.415Z,18.00
2022-08-20T22:20:10.539Z,18.00
2022-08-20T22:22:40.402Z,17.90
2022-08-20T22:25:18.404Z,17.90
2022-08-20T22:27:48.535Z,17.80
2022-08-20T22:30:18.393Z,17.70
2022-08-20T22:32:52.244Z,17.60
2022-08-20T22:35:22.563Z,17.60
2022-08-20T22:37:52.424Z,17.50
2022-08-20T22:40:25.029Z,17.60
2022-08-20T22:42:55.050Z,17.60
2022-08-20T22:45:24.938Z,17.50
2022-08-20T22:47:54.796Z,17.50
2022-08-20T22:50:26.744Z,17.60
2022-08-20T22:52:57.184Z,17.60
2022-08-20T22:55:29.666Z,17.60
2022-08-20T22:57:59.534Z,17.60
2022-08-20T23:00:31.033Z,17.60
2022-08-20T23:03:02.376Z,17.50
2022-08-20T23:05:35.201Z,17.50
2022-08-20T23:08:07.195Z,17.50
2022-08-20T23:10:40.849Z,17.50
2022-08-20T23:13:11.004Z,17.50
2022-08-20T23:15:45.351Z,17.50
2022-08-20T23:18:18.479Z,17.50
2022-08-20T23:20:52.801Z,17.50
2022-08-20T23:23:22.609Z,17.50
2022-08-20T23:25:56.266Z,17.60
2022-08-20T23:28:27.921Z,17.60
2022-08-20T23:30:57.816Z,17.60
2022-08-20T23:33:27.875Z,17.60
2022-08-20T23:35:58.147Z,17.60
2022-08-20T23:38:28.013Z,17.60
2022-08-20T23:41:00.454Z,17.50
2022-08-20T23:43:30.682Z,17.30
2022-08-20T23:46:03.587Z,17.20
2022-08-20T23:48:33.498Z,17.10
2022-08-20T23:51:03.600Z,17.00
2022-08-20T23:53:33.504Z,17.00
2022-08-20T23:56:06.533Z,17.00
2022-08-20T23:58:37.107Z,17.00
